Terminal Aerodrome Forecast
Issued by NWS

Home | Current Version | Previous Version | Text Only | Print | Product List | Glossary On
Versions: 1 2 3 4 5 6 7 8 9 10 11 12 13 14 15 16 17 18 19 20 21 22 23 24 25
000
FTUS44 KHGX 050521
TAFSGR
TAF
KSGR 050521Z 0506/0606 13006KT P6SM BKN250
     FM051100 13005KT P6SM VCSH SCT020 BKN250
      TEMPO 0511/0514 BKN025
     FM051400 13013KT P6SM VCTS BKN030CB
     FM051800 14013KT P6SM VCTS BKN035CB OVC250
      TEMPO 0518/0521 TSRA BKN028CB OVC050
     FM052200 14011KT P6SM VCSH BKN040 OVC250
     FM060200 14009KT P6SM BKN250=

USA.gov is the U.S. government's official web portal to all federal, state and local government web resources and services.